Paradise Valley, Nevada Weather observations

Data are for 10 minute period ending at time listed.
 Day   Time   Solar   Ave.   Ave.  Ave.  Vector  Max.   Baro.   Total    
  of    of     Rad.   Air    Rel.  Wind   Wind   Wind  Press.  Precip.   
Year   Day            Temp.  Hum.  Speed  Dir.   Gust                    
2016   (PST)  Kw/m2    F      %     mph   deg.    mph    mb.     in.     
-------------------------------------------------------------------------
 180   18:50   0.07   87.7    12    7.0   290    13.1   866.0    0.00 
 180   19:00   0.02   86.3    11    6.7   261     9.9   866.1    0.00 
 180   19:10   0.02   82.1    15    4.8   278     6.7   866.1    0.00 
 180   19:20   0.01   80.0    15    4.6   263     6.4   866.2    0.00 
 180   19:30   0.01   78.1    17    5.6   271     7.6   866.2    0.00 
 180   19:40   0.00   78.3    17    6.3   287     9.6   866.3    0.00 
 180   19:50   0.00   77.4    15    5.2   276     6.4   866.3    0.00 
 180   20:00   0.00   77.7    14    5.2   272     6.6   866.4    0.00 
 180   20:10   0.00   76.7    15    5.4   267     6.8   866.4    0.00 
 180   20:20   0.00   76.8    14    5.4   262     6.9   866.4    0.00 
 180   20:30   0.00   75.4    16    5.4   269     7.2   866.5    0.00 
 180   20:40   0.00   75.5    15    4.5   268     6.6   866.5    0.00 
 180   20:50   0.00   75.5    15    4.7   264     5.6   866.5    0.00 
 180   21:00   0.00   73.6    20    5.0   138    10.3   866.6    0.00 
 180   21:10   0.00   71.2    24    6.7   154    11.8   866.8    0.00 
 180   21:20   0.00   74.0    18    8.8   132    12.4   866.7    0.00 
 180   21:30   0.00   73.9    18    6.0   154     8.0   866.8    0.00 
 180   21:40   0.00   75.3    17    4.1   134     8.7   866.8    0.00 
 180   21:50   0.00   70.4    21    2.9   253     5.5   866.8    0.00 
 180   22:00   0.00   72.9    16    2.3   122     5.6   866.7    0.00 
 180   22:10   0.00   71.8    20    3.2   234     6.8   866.7    0.00 
 180   22:20   0.00   72.6    18    1.7   280     5.6   866.6    0.00 
 180   22:30   0.00   68.7    24    2.3   346     6.1   866.7    0.00 
 180   22:40   0.00   67.9    25    5.5   108     6.6   866.6    0.00 
 180   22:50   0.00   67.4    24    4.1   279     9.1   866.5    0.00 
 180   23:00   0.00   68.2    24    4.5   274     7.8   866.5    0.00 
 180   23:10   0.00   72.0    16    3.2   252     5.9   866.4    0.00 
 180   23:20   0.00   68.9    20    4.4   262     9.3   866.4    0.00 
 180   23:30   0.00   71.0    20    3.3   245     8.1   866.4    0.00 
 180   23:40   0.00   69.7    22    4.5   166     6.3   866.4    0.00 
 180   23:50   0.00   68.9    25    4.8   179     5.8   866.4    0.00 
 181    0:00   0.00   66.4    30    6.7   174     7.7   866.3    0.00 
 181    0:10   0.00   67.9    24    5.7   195     7.7   866.2    0.00 
 181    0:20   0.00   67.8    26    4.9   218     8.6   866.3    0.00 
 181    0:30   0.00   69.6    19    6.3   216    10.5   866.2    0.00 
 181    0:40   0.00   71.0    18    4.9   220     8.4   866.2    0.00 
 181    0:50   0.00   69.9    20    6.1   186     8.8   866.2    0.00 
 181    1:00   0.00   69.7    19    7.1   198     9.0   866.1    0.00 
 181    1:10   0.00   66.8    24    6.5   215     8.0   866.1    0.00 
 181    1:20   0.00   66.2    25    5.6   276     9.5   866.2    0.00 
 181    1:30   0.00   63.0    31    6.2   269     8.7   866.3    0.00 
 181    1:40   0.00   63.2    28    6.3   271     9.6   866.2    0.00 
 181    1:50   0.00   61.6    30    2.9   244     6.4   866.2    0.00 
 181    2:00   0.00   61.4    28    1.4   222     4.0   866.1    0.00 
 181    2:10   0.00   62.1    27    0.4   174     3.6   866.0    0.00 
 181    2:20   0.00   61.6    29    2.5   152     6.4   866.1    0.00 
 181    2:30   0.00   60.4    33    3.0   294     5.3   866.1    0.00 
 181    2:40   0.00   56.7    45    3.4   304     6.1   866.2    0.00 
 181    2:50   0.00   56.2    37    2.9   310     5.0   866.2    0.00 
 181    3:00   0.00   56.3    40    4.0   326     7.1   866.2    0.00 
 181    3:10   0.00   55.6    36    4.1   322     5.6   866.3    0.00 
 181    3:20   0.00   58.4    32    4.2   336     5.9   866.3    0.00 
 181    3:30   0.00   59.1    31    2.9   315     4.7   866.5    0.00 
 181    3:40   0.00   56.4    40    4.1   276     5.5   866.6    0.00 
 181    3:50   0.00   56.4    35    4.9   272     5.7   866.6    0.00 
 181    4:00   0.00   57.8    32    3.3   279     4.5   866.7    0.00 
 181    4:10   0.00   58.4    32    2.3   305     3.3   866.6    0.00 
 181    4:20   0.00   57.9    43    3.9   358     4.7   866.6    0.00 
 181    4:30   0.01   54.3    48    2.0   320     4.2   866.6    0.00 
 181    4:40   0.01   55.2    43    0.5   333     1.5   866.7    0.00 
 181    4:50   0.04   56.5    41    1.1   321     4.3   866.7    0.00 
 181    5:00   0.04   55.2    46    4.3   279     5.4   866.7    0.00 
 181    5:10   0.06   56.4    41    5.1   261     7.4   866.7    0.00 
 181    5:20   0.06   59.1    36    4.7   208     7.5   866.9    0.00 
 181    5:30   0.09   59.5    39    3.1   169     5.2   867.0    0.00 
 181    5:40   0.15   61.9    40    1.0   266     2.6   867.0    0.00 
 181    5:50   0.12   62.5    41    2.1   291     4.4   867.1    0.00 
 181    6:00   0.17   64.2    44    1.9   304     3.3   867.0    0.00 
 181    6:10   0.20   65.5    38    1.8   330     3.9   867.0    0.00 
 181    6:20   0.37   66.4    40    3.2    59     6.4   867.1    0.00 
 181    6:30   0.28   67.0    38    3.1    97     5.2   867.4    0.00 
 181    6:40   0.36   67.4    30    4.1    28     6.1   867.5    0.00 
 181    6:50   0.25   67.9    36    3.2    70     4.7   867.6    0.00 
 181    7:00   0.19   67.6    36    2.7   133     3.9   867.9    0.00 
 181    7:10   0.21   69.2    30    0.8   111     2.6   867.9    0.00 
 181    7:20   0.20   70.3    35    0.0   112     0.6   867.9    0.00 
 181    7:30   0.15   70.7    31    0.1   118     0.5   868.0    0.00 
 181    7:40   0.16   70.9    31    0.3   118     1.1   868.0    0.00 
 181    7:50   0.22   71.3    26    0.2   129     0.7   868.0    0.00 
 181    8:00   0.40   73.6    20    1.4   177     3.2   868.0    0.00 
 181    8:10   0.61   76.9    18    2.6   170     4.7   868.0    0.00 
 181    8:20   0.47   78.3    18    3.6   124     5.0   868.0    0.00 
 181    8:30   0.26   77.0    22    4.0   115     5.6   868.0    0.00 
 181    8:40   0.21   76.6    26    4.2   135     5.8   868.1    0.00 
 181    8:50   0.31   76.4    28    5.1   137     8.1   868.1    0.00 
 181    9:00   0.35   79.0    20    5.3   128     9.3   868.1    0.00 
 181    9:10   0.28   79.3    24    3.2   113     5.8   868.1    0.00 
 181    9:20   0.30   78.1    36    3.3   355     4.7   868.1    0.00 
 181    9:30   0.31   75.9    43    3.6   354     5.0   868.1    0.00 
 181    9:40   0.65   78.5    31    3.0   348     4.0   868.1    0.00 
 181    9:50   0.66   81.1    27    2.7   342     4.0   868.1    0.00 
 181   10:00   1.03   83.1    25    3.1   357     4.7   868.1    0.00 
 181   10:10   1.05   85.3    18    3.6   355     4.7   868.1    0.00 
 181   10:20   1.06   86.9    15    4.0     3     5.7   867.9    0.00 
 181   10:30   1.10   88.8    12    4.5    18     7.2   867.8    0.00 
 181   10:40   1.04   89.5    12    5.3    22     8.3   867.7    0.00 
 181   10:50   1.08   89.3    12    4.9    12     7.8   867.6    0.00 
 181   11:00   0.55   89.4    12    4.0   334    12.1   867.5    0.00 
 181   11:10   0.42   88.0    12    8.1   220    11.8   867.4    0.00 
 181   11:20   0.43   88.1    11    6.8   211     9.9   867.3    0.00 
 181   11:30   0.76   89.4    10    5.6   189     8.1   867.3    0.00 
 181   11:40   0.80   92.1     8    5.2   169     8.3   867.2    0.00 
 181   11:50   1.06   91.5    10    5.7   127     9.5   867.1    0.00 
 181   12:00   1.04   91.8     9    7.0   119     9.7   866.9    0.00 
 181   12:10   1.14   92.2    10    6.9   119    15.0   866.6    0.00 
 181   12:20   1.15   94.5     8    6.3   212    13.8   866.4    0.00 
 181   12:30   1.04   94.3     9    8.8   246    15.1   866.3    0.00 
 181   12:40   0.84   93.0    12    4.8   345     9.6   866.2    0.00 
 181   12:50   1.06   93.1     9    3.6   321     8.4   866.1    0.00 
 181   13:00   1.03   94.9     9    5.0   238    11.2   866.0    0.00 
 181   13:10   1.00   94.4     8    7.6   259    15.1   865.9    0.00 
 181   13:20   1.02   94.9     8    8.5   283    14.2   865.7    0.00 
 181   13:30   1.00   94.9     9    8.3   267    14.5   865.7    0.00 
 181   13:40   0.98   94.7     8    8.1   257    16.9   865.6    0.00 
 181   13:50   0.99   95.5     8    7.3   251    14.2   865.5    0.00 
 181   14:00   1.04   95.5     7    9.3   238    20.4   865.4    0.00 
 181   14:10   0.74   94.9     9   11.4   242    18.3   865.3    0.00 
 181   14:20   0.30   92.2    10    5.1   272    11.4   865.2    0.00 
 181   14:30   0.61   92.5     9    4.7   230    13.8   865.2    0.00 
 181   14:40   0.73   95.8     8    6.8   258    16.6   865.2    0.00 
 181   14:50   0.35   93.5     9    5.9   237    16.4   865.1    0.00 
 181   15:00   0.42   92.5    10    7.4   243    13.5   865.0    0.00 
 181   15:10   0.88   94.6     9    9.5   267    17.2   864.8    0.00 
 181   15:20   0.54   94.2    10    6.8   250    11.6   864.8    0.00 
 181   15:30   0.77   95.4     8    7.4   244    16.1   864.5    0.00 
 181   15:40   0.48   94.7     8    7.7   238    17.4   864.4    0.00 
 181   15:50   0.63   94.9     8    6.7   237    15.2   864.3    0.00 
 181   16:00   0.69   96.0     8    2.9   264     7.0   864.2    0.00 
 181   16:10   0.34   95.9     9    3.9   298     8.5   864.1    0.00 
 181   16:20   0.44   93.3    10    4.7   286     8.7   864.0    0.00 
 181   16:30   0.54   94.3    12    3.3   223     7.7   864.0    0.00 
 181   16:40   0.55   96.5     8    4.0   210     9.9   863.9    0.00 
 181   16:50   0.48   97.8     7    0.6     3     2.2   863.9    0.00 
 181   17:00   0.43   97.2     8    2.0     6     3.1   863.8    0.00 
 181   17:10   0.39   95.3    10    3.8    43     6.4   863.7    0.00 
 181   17:20   0.35   95.7    10    1.9   130     4.4   863.7    0.00 
 181   17:30   0.32   95.1     9    3.2   156     9.3   863.7    0.00 
 181   17:40   0.29   93.7    11    4.3   236     7.7   863.6    0.00 
 181   17:50   0.25   93.2    11    3.5   254     5.6   863.6    0.00 
 181   18:00   0.22   94.2    14    1.6   290     3.4   863.7    0.00 
 181   18:10   0.19   91.7    16    4.8   294     9.3   863.8    0.00 
 181   18:20   0.16   86.8    18    7.2   295     9.9   863.9    0.00 
 181   18:30   0.13   85.9    17    7.0   290     9.7   864.0    0.00 
 181   18:40   0.10   84.8    17    7.3   288    10.4   864.2    0.00 

Return to Paradise Valley graphs page.


Western Regional Climate Center,wrcc@dri.edu